sensor_id;sensor_type;location;lat;lon;timestamp;P1;durP1;ratioP1;P2;durP2;ratioP2
4585;SDS011;2305;50.118;8.952;2023-09-07T00:01:05;7.00;;;3.23;;
4585;SDS011;2305;50.118;8.952;2023-09-07T00:03:37;6.80;;;3.40;;
4585;SDS011;2305;50.118;8.952;2023-09-07T00:06:08;5.73;;;3.33;;
4585;SDS011;2305;50.118;8.952;2023-09-07T00:08:37;4.20;;;3.20;;
4585;SDS011;2305;50.118;8.952;2023-09-07T00:11:06;13.20;;;3.47;;
4585;SDS011;2305;50.118;8.952;2023-09-07T00:13:41;5.20;;;3.37;;
4585;SDS011;2305;50.118;8.952;2023-09-07T00:16:09;7.20;;;3.33;;
4585;SDS011;2305;50.118;8.952;2023-09-07T00:18:38;7.00;;;3.30;;
4585;SDS011;2305;50.118;8.952;2023-09-07T00:21:07;9.40;;;3.27;;
4585;SDS011;2305;50.118;8.952;2023-09-07T00:23:39;7.63;;;3.43;;
4585;SDS011;2305;50.118;8.952;2023-09-07T00:26:10;8.63;;;3.57;;
4585;SDS011;2305;50.118;8.952;2023-09-07T00:28:43;4.30;;;3.20;;
4585;SDS011;2305;50.118;8.952;2023-09-07T00:31:12;5.67;;;3.43;;
4585;SDS011;2305;50.118;8.952;2023-09-07T00:33:41;11.97;;;3.80;;
4585;SDS011;2305;50.118;8.952;2023-09-07T00:36:10;5.70;;;3.53;;
4585;SDS011;2305;50.118;8.952;2023-09-07T00:38:42;8.67;;;4.10;;
4585;SDS011;2305;50.118;8.952;2023-09-07T00:41:12;7.03;;;4.50;;
4585;SDS011;2305;50.118;8.952;2023-09-07T00:43:44;7.80;;;3.70;;
4585;SDS011;2305;50.118;8.952;2023-09-07T00:46:14;6.07;;;3.50;;
4585;SDS011;2305;50.118;8.952;2023-09-07T00:48:45;5.87;;;3.80;;
4585;SDS011;2305;50.118;8.952;2023-09-07T00:51:16;7.50;;;3.50;;
4585;SDS011;2305;50.118;8.952;2023-09-07T00:53:44;8.57;;;3.70;;
4585;SDS011;2305;50.118;8.952;2023-09-07T00:56:12;10.00;;;4.20;;
4585;SDS011;2305;50.118;8.952;2023-09-07T00:58:42;7.53;;;3.13;;
4585;SDS011;2305;50.118;8.952;2023-09-07T01:01:14;6.07;;;3.60;;
4585;SDS011;2305;50.118;8.952;2023-09-07T01:03:45;4.80;;;3.40;;
4585;SDS011;2305;50.118;8.952;2023-09-07T01:06:20;4.90;;;3.20;;
4585;SDS011;2305;50.118;8.952;2023-09-07T01:08:57;6.60;;;3.80;;
4585;SDS011;2305;50.118;8.952;2023-09-07T01:11:36;5.00;;;3.50;;
4585;SDS011;2305;50.118;8.952;2023-09-07T01:14:06;7.37;;;3.83;;
4585;SDS011;2305;50.118;8.952;2023-09-07T01:16:36;3.93;;;3.30;;
4585;SDS011;2305;50.118;8.952;2023-09-07T01:19:06;6.10;;;3.70;;
4585;SDS011;2305;50.118;8.952;2023-09-07T01:21:38;8.30;;;3.20;;
4585;SDS011;2305;50.118;8.952;2023-09-07T01:24:08;4.33;;;3.50;;
4585;SDS011;2305;50.118;8.952;2023-09-07T01:26:38;6.10;;;2.83;;
4585;SDS011;2305;50.118;8.952;2023-09-07T01:29:09;5.67;;;3.50;;
4585;SDS011;2305;50.118;8.952;2023-09-07T01:31:37;5.97;;;3.80;;
4585;SDS011;2305;50.118;8.952;2023-09-07T01:34:07;6.07;;;3.90;;
4585;SDS011;2305;50.118;8.952;2023-09-07T01:36:35;6.67;;;4.13;;
4585;SDS011;2305;50.118;8.952;2023-09-07T01:39:06;7.90;;;3.53;;
4585;SDS011;2305;50.118;8.952;2023-09-07T01:41:38;5.27;;;4.00;;
4585;SDS011;2305;50.118;8.952;2023-09-07T01:44:07;5.30;;;3.40;;
4585;SDS011;2305;50.118;8.952;2023-09-07T01:46:36;6.67;;;3.93;;
4585;SDS011;2305;50.118;8.952;2023-09-07T01:49:05;5.57;;;3.40;;
4585;SDS011;2305;50.118;8.952;2023-09-07T01:51:35;5.83;;;3.70;;
4585;SDS011;2305;50.118;8.952;2023-09-07T01:54:06;7.90;;;4.33;;
4585;SDS011;2305;50.118;8.952;2023-09-07T01:56:35;4.00;;;3.27;;
4585;SDS011;2305;50.118;8.952;2023-09-07T01:59:03;5.37;;;3.33;;
4585;SDS011;2305;50.118;8.952;2023-09-07T02:01:32;6.03;;;3.30;;
4585;SDS011;2305;50.118;8.952;2023-09-07T02:04:04;4.90;;;3.37;;
4585;SDS011;2305;50.118;8.952;2023-09-07T02:06:35;4.60;;;3.57;;
4585;SDS011;2305;50.118;8.952;2023-09-07T02:09:09;6.33;;;4.13;;
4585;SDS011;2305;50.118;8.952;2023-09-07T02:11:38;5.80;;;3.30;;
4585;SDS011;2305;50.118;8.952;2023-09-07T02:14:07;5.23;;;3.17;;
4585;SDS011;2305;50.118;8.952;2023-09-07T02:16:35;6.40;;;4.30;;
4585;SDS011;2305;50.118;8.952;2023-09-07T02:19:05;6.37;;;4.17;;
4585;SDS011;2305;50.118;8.952;2023-09-07T02:21:38;5.90;;;3.50;;
4585;SDS011;2305;50.118;8.952;2023-09-07T02:24:08;6.97;;;4.33;;
4585;SDS011;2305;50.118;8.952;2023-09-07T02:26:37;5.53;;;3.53;;
4585;SDS011;2305;50.118;8.952;2023-09-07T02:29:12;8.70;;;3.43;;
4585;SDS011;2305;50.118;8.952;2023-09-07T02:31:40;8.77;;;3.90;;
4585;SDS011;2305;50.118;8.952;2023-09-07T02:34:09;6.70;;;3.67;;
4585;SDS011;2305;50.118;8.952;2023-09-07T02:36:38;6.40;;;4.20;;
4585;SDS011;2305;50.118;8.952;2023-09-07T02:39:08;6.13;;;4.00;;
4585;SDS011;2305;50.118;8.952;2023-09-07T02:41:38;8.50;;;3.97;;
4585;SDS011;2305;50.118;8.952;2023-09-07T02:44:07;6.80;;;3.83;;
4585;SDS011;2305;50.118;8.952;2023-09-07T02:46:35;5.83;;;4.03;;
4585;SDS011;2305;50.118;8.952;2023-09-07T02:49:06;7.20;;;3.90;;
4585;SDS011;2305;50.118;8.952;2023-09-07T02:51:35;6.20;;;3.83;;
4585;SDS011;2305;50.118;8.952;2023-09-07T02:54:04;7.03;;;3.67;;
4585;SDS011;2305;50.118;8.952;2023-09-07T02:56:34;4.97;;;3.60;;
4585;SDS011;2305;50.118;8.952;2023-09-07T02:59:03;7.90;;;5.87;;
4585;SDS011;2305;50.118;8.952;2023-09-07T03:04:46;5.07;;;3.40;;
4585;SDS011;2305;50.118;8.952;2023-09-07T03:07:17;5.20;;;3.97;;
4585;SDS011;2305;50.118;8.952;2023-09-07T03:09:48;6.73;;;3.70;;
4585;SDS011;2305;50.118;8.952;2023-09-07T03:12:17;10.37;;;4.00;;
4585;SDS011;2305;50.118;8.952;2023-09-07T03:14:47;5.97;;;3.80;;
4585;SDS011;2305;50.118;8.952;2023-09-07T03:17:19;6.50;;;3.73;;
4585;SDS011;2305;50.118;8.952;2023-09-07T03:19:49;6.63;;;3.67;;
4585;SDS011;2305;50.118;8.952;2023-09-07T03:22:19;5.10;;;3.67;;
4585;SDS011;2305;50.118;8.952;2023-09-07T03:24:49;5.00;;;3.90;;
4585;SDS011;2305;50.118;8.952;2023-09-07T03:27:19;8.03;;;4.10;;
4585;SDS011;2305;50.118;8.952;2023-09-07T03:29:49;6.03;;;4.20;;
4585;SDS011;2305;50.118;8.952;2023-09-07T03:32:20;5.63;;;3.67;;
4585;SDS011;2305;50.118;8.952;2023-09-07T03:34:48;8.53;;;3.87;;
4585;SDS011;2305;50.118;8.952;2023-09-07T03:37:16;7.90;;;3.60;;
4585;SDS011;2305;50.118;8.952;2023-09-07T03:39:44;5.87;;;4.20;;
4585;SDS011;2305;50.118;8.952;2023-09-07T03:42:14;5.63;;;4.20;;
4585;SDS011;2305;50.118;8.952;2023-09-07T03:44:46;4.83;;;3.60;;
4585;SDS011;2305;50.118;8.952;2023-09-07T03:47:14;9.20;;;3.73;;
4585;SDS011;2305;50.118;8.952;2023-09-07T03:49:45;7.10;;;3.63;;
4585;SDS011;2305;50.118;8.952;2023-09-07T03:52:13;8.80;;;3.97;;
4585;SDS011;2305;50.118;8.952;2023-09-07T03:54:43;7.80;;;4.37;;
4585;SDS011;2305;50.118;8.952;2023-09-07T03:57:12;7.17;;;4.17;;
4585;SDS011;2305;50.118;8.952;2023-09-07T03:59:40;7.53;;;4.07;;
4585;SDS011;2305;50.118;8.952;2023-09-07T04:02:10;10.73;;;3.83;;
4585;SDS011;2305;50.118;8.952;2023-09-07T04:04:40;5.67;;;4.03;;
4585;SDS011;2305;50.118;8.952;2023-09-07T04:07:11;13.00;;;4.20;;
4585;SDS011;2305;50.118;8.952;2023-09-07T04:09:42;10.73;;;4.27;;
4585;SDS011;2305;50.118;8.952;2023-09-07T04:12:11;9.03;;;4.00;;
4585;SDS011;2305;50.118;8.952;2023-09-07T04:14:41;9.40;;;3.90;;
4585;SDS011;2305;50.118;8.952;2023-09-07T04:17:14;7.13;;;3.70;;
4585;SDS011;2305;50.118;8.952;2023-09-07T04:19:45;21.97;;;4.00;;
4585;SDS011;2305;50.118;8.952;2023-09-07T04:22:15;11.13;;;3.80;;
4585;SDS011;2305;50.118;8.952;2023-09-07T04:24:47;13.90;;;4.63;;
4585;SDS011;2305;50.118;8.952;2023-09-07T04:27:17;7.63;;;4.07;;
4585;SDS011;2305;50.118;8.952;2023-09-07T04:29:45;19.03;;;3.90;;
4585;SDS011;2305;50.118;8.952;2023-09-07T04:32:17;5.87;;;4.20;;
4585;SDS011;2305;50.118;8.952;2023-09-07T04:34:46;10.07;;;4.93;;
4585;SDS011;2305;50.118;8.952;2023-09-07T04:37:14;7.10;;;3.70;;
4585;SDS011;2305;50.118;8.952;2023-09-07T04:39:42;5.27;;;4.10;;
4585;SDS011;2305;50.118;8.952;2023-09-07T04:42:10;6.03;;;3.77;;
4585;SDS011;2305;50.118;8.952;2023-09-07T04:44:39;9.70;;;3.63;;
4585;SDS011;2305;50.118;8.952;2023-09-07T04:47:08;7.80;;;3.20;;
4585;SDS011;2305;50.118;8.952;2023-09-07T04:49:39;5.80;;;3.53;;
4585;SDS011;2305;50.118;8.952;2023-09-07T04:52:08;12.97;;;4.13;;
4585;SDS011;2305;50.118;8.952;2023-09-07T04:54:36;9.90;;;4.17;;
4585;SDS011;2305;50.118;8.952;2023-09-07T04:57:05;9.90;;;4.50;;
4585;SDS011;2305;50.118;8.952;2023-09-07T04:59:33;6.03;;;3.67;;
4585;SDS011;2305;50.118;8.952;2023-09-07T05:02:02;9.90;;;4.20;;
4585;SDS011;2305;50.118;8.952;2023-09-07T05:04:31;10.37;;;4.40;;
4585;SDS011;2305;50.118;8.952;2023-09-07T05:07:02;8.70;;;4.53;;
4585;SDS011;2305;50.118;8.952;2023-09-07T05:09:34;12.50;;;3.83;;
4585;SDS011;2305;50.118;8.952;2023-09-07T05:12:03;5.40;;;4.10;;
4585;SDS011;2305;50.118;8.952;2023-09-07T05:14:34;5.40;;;3.57;;
4585;SDS011;2305;50.118;8.952;2023-09-07T05:17:05;6.53;;;3.77;;
4585;SDS011;2305;50.118;8.952;2023-09-07T05:19:34;8.40;;;4.10;;
4585;SDS011;2305;50.118;8.952;2023-09-07T05:22:04;12.67;;;3.90;;
4585;SDS011;2305;50.118;8.952;2023-09-07T05:24:33;5.33;;;3.67;;
4585;SDS011;2305;50.118;8.952;2023-09-07T05:27:03;6.23;;;4.13;;
4585;SDS011;2305;50.118;8.952;2023-09-07T05:29:32;5.23;;;3.57;;
4585;SDS011;2305;50.118;8.952;2023-09-07T05:32:03;15.10;;;4.10;;
4585;SDS011;2305;50.118;8.952;2023-09-07T05:34:34;9.47;;;4.17;;
4585;SDS011;2305;50.118;8.952;2023-09-07T05:37:06;8.17;;;3.63;;
4585;SDS011;2305;50.118;8.952;2023-09-07T05:39:37;7.90;;;4.13;;
4585;SDS011;2305;50.118;8.952;2023-09-07T05:42:05;12.33;;;4.50;;
4585;SDS011;2305;50.118;8.952;2023-09-07T05:44:34;7.83;;;4.57;;
4585;SDS011;2305;50.118;8.952;2023-09-07T05:47:02;6.80;;;4.17;;
4585;SDS011;2305;50.118;8.952;2023-09-07T05:49:34;5.30;;;3.93;;
4585;SDS011;2305;50.118;8.952;2023-09-07T05:52:09;8.67;;;4.20;;
4585;SDS011;2305;50.118;8.952;2023-09-07T05:54:41;7.40;;;4.40;;
4585;SDS011;2305;50.118;8.952;2023-09-07T05:57:09;7.07;;;4.40;;
4585;SDS011;2305;50.118;8.952;2023-09-07T05:59:39;11.93;;;4.30;;
4585;SDS011;2305;50.118;8.952;2023-09-07T06:02:07;6.00;;;4.20;;
4585;SDS011;2305;50.118;8.952;2023-09-07T06:04:35;6.27;;;4.50;;
4585;SDS011;2305;50.118;8.952;2023-09-07T06:07:06;8.10;;;4.17;;
4585;SDS011;2305;50.118;8.952;2023-09-07T06:09:37;5.60;;;4.17;;
4585;SDS011;2305;50.118;8.952;2023-09-07T06:12:05;9.10;;;4.33;;
4585;SDS011;2305;50.118;8.952;2023-09-07T06:14:35;11.07;;;4.47;;
4585;SDS011;2305;50.118;8.952;2023-09-07T06:17:04;12.97;;;4.20;;
4585;SDS011;2305;50.118;8.952;2023-09-07T06:19:32;7.90;;;4.30;;
4585;SDS011;2305;50.118;8.952;2023-09-07T06:22:03;10.37;;;4.23;;
4585;SDS011;2305;50.118;8.952;2023-09-07T06:24:32;5.30;;;4.70;;
4585;SDS011;2305;50.118;8.952;2023-09-07T06:27:01;8.60;;;4.20;;
4585;SDS011;2305;50.118;8.952;2023-09-07T06:29:31;7.40;;;4.40;;
4585;SDS011;2305;50.118;8.952;2023-09-07T06:32:00;7.20;;;4.10;;
4585;SDS011;2305;50.118;8.952;2023-09-07T06:34:28;6.80;;;4.50;;
4585;SDS011;2305;50.118;8.952;2023-09-07T06:36:59;9.63;;;4.77;;
4585;SDS011;2305;50.118;8.952;2023-09-07T06:39:27;6.07;;;4.00;;
4585;SDS011;2305;50.118;8.952;2023-09-07T06:41:56;14.20;;;4.23;;
4585;SDS011;2305;50.118;8.952;2023-09-07T06:44:33;7.70;;;4.37;;
4585;SDS011;2305;50.118;8.952;2023-09-07T06:47:02;7.40;;;4.30;;
4585;SDS011;2305;50.118;8.952;2023-09-07T06:49:31;7.47;;;4.60;;
4585;SDS011;2305;50.118;8.952;2023-09-07T06:51:59;6.20;;;4.10;;
4585;SDS011;2305;50.118;8.952;2023-09-07T06:54:31;12.47;;;4.80;;
4585;SDS011;2305;50.118;8.952;2023-09-07T06:56:59;10.07;;;4.07;;
4585;SDS011;2305;50.118;8.952;2023-09-07T06:59:28;8.00;;;3.90;;
4585;SDS011;2305;50.118;8.952;2023-09-07T07:01:59;10.17;;;4.50;;
4585;SDS011;2305;50.118;8.952;2023-09-07T07:04:30;9.73;;;5.30;;
4585;SDS011;2305;50.118;8.952;2023-09-07T07:06:59;10.97;;;4.70;;
4585;SDS011;2305;50.118;8.952;2023-09-07T07:09:31;11.87;;;4.33;;
4585;SDS011;2305;50.118;8.952;2023-09-07T07:12:01;13.93;;;3.90;;
4585;SDS011;2305;50.118;8.952;2023-09-07T07:14:33;4.97;;;3.47;;
4585;SDS011;2305;50.118;8.952;2023-09-07T07:17:04;8.80;;;4.70;;
4585;SDS011;2305;50.118;8.952;2023-09-07T07:19:35;6.33;;;3.43;;
4585;SDS011;2305;50.118;8.952;2023-09-07T07:22:04;6.03;;;3.70;;
4585;SDS011;2305;50.118;8.952;2023-09-07T07:24:34;7.13;;;3.93;;
4585;SDS011;2305;50.118;8.952;2023-09-07T07:27:02;13.50;;;4.40;;
4585;SDS011;2305;50.118;8.952;2023-09-07T07:29:35;5.83;;;4.27;;
4585;SDS011;2305;50.118;8.952;2023-09-07T07:32:06;6.77;;;4.23;;
4585;SDS011;2305;50.118;8.952;2023-09-07T07:34:38;8.47;;;3.90;;
4585;SDS011;2305;50.118;8.952;2023-09-07T07:37:06;5.10;;;4.00;;
4585;SDS011;2305;50.118;8.952;2023-09-07T07:39:38;5.70;;;3.80;;
4585;SDS011;2305;50.118;8.952;2023-09-07T07:42:08;9.77;;;4.60;;
4585;SDS011;2305;50.118;8.952;2023-09-07T07:44:41;8.50;;;4.60;;
4585;SDS011;2305;50.118;8.952;2023-09-07T07:47:12;6.40;;;3.83;;
4585;SDS011;2305;50.118;8.952;2023-09-07T07:49:42;7.00;;;4.07;;
4585;SDS011;2305;50.118;8.952;2023-09-07T07:52:11;10.60;;;4.00;;
4585;SDS011;2305;50.118;8.952;2023-09-07T07:54:41;9.03;;;4.33;;
4585;SDS011;2305;50.118;8.952;2023-09-07T07:57:12;10.30;;;4.67;;
4585;SDS011;2305;50.118;8.952;2023-09-07T07:59:40;8.37;;;4.10;;
4585;SDS011;2305;50.118;8.952;2023-09-07T08:02:08;6.13;;;3.93;;
4585;SDS011;2305;50.118;8.952;2023-09-07T08:04:38;5.43;;;3.97;;
4585;SDS011;2305;50.118;8.952;2023-09-07T08:07:08;6.20;;;4.30;;
4585;SDS011;2305;50.118;8.952;2023-09-07T08:09:39;7.23;;;3.40;;
4585;SDS011;2305;50.118;8.952;2023-09-07T08:12:08;5.10;;;3.67;;
4585;SDS011;2305;50.118;8.952;2023-09-07T08:14:36;5.40;;;3.93;;
4585;SDS011;2305;50.118;8.952;2023-09-07T08:17:05;5.63;;;3.90;;
4585;SDS011;2305;50.118;8.952;2023-09-07T08:19:39;7.80;;;4.10;;
4585;SDS011;2305;50.118;8.952;2023-09-07T08:22:11;4.13;;;3.63;;
4585;SDS011;2305;50.118;8.952;2023-09-07T08:24:40;5.80;;;3.70;;
4585;SDS011;2305;50.118;8.952;2023-09-07T08:27:11;6.40;;;3.60;;
4585;SDS011;2305;50.118;8.952;2023-09-07T08:29:51;6.30;;;3.83;;
4585;SDS011;2305;50.118;8.952;2023-09-07T08:32:20;7.13;;;4.20;;
4585;SDS011;2305;50.118;8.952;2023-09-07T08:34:53;4.87;;;3.70;;
4585;SDS011;2305;50.118;8.952;2023-09-07T08:37:23;5.90;;;3.97;;
4585;SDS011;2305;50.118;8.952;2023-09-07T08:39:54;7.10;;;3.50;;
4585;SDS011;2305;50.118;8.952;2023-09-07T08:42:24;8.03;;;3.53;;
4585;SDS011;2305;50.118;8.952;2023-09-07T08:44:54;4.47;;;3.73;;
4585;SDS011;2305;50.118;8.952;2023-09-07T08:47:25;6.63;;;3.97;;
4585;SDS011;2305;50.118;8.952;2023-09-07T08:50:00;9.73;;;3.60;;
4585;SDS011;2305;50.118;8.952;2023-09-07T08:52:30;4.00;;;3.37;;
4585;SDS011;2305;50.118;8.952;2023-09-07T08:54:59;8.33;;;3.90;;
4585;SDS011;2305;50.118;8.952;2023-09-07T08:57:31;5.17;;;3.57;;
4585;SDS011;2305;50.118;8.952;2023-09-07T09:00:02;7.33;;;3.83;;
4585;SDS011;2305;50.118;8.952;2023-09-07T09:02:46;4.40;;;3.37;;
4585;SDS011;2305;50.118;8.952;2023-09-07T09:05:20;7.33;;;3.00;;
4585;SDS011;2305;50.118;8.952;2023-09-07T09:07:48;6.60;;;3.70;;
4585;SDS011;2305;50.118;8.952;2023-09-07T09:10:17;6.47;;;3.60;;
4585;SDS011;2305;50.118;8.952;2023-09-07T09:12:45;6.87;;;3.33;;
4585;SDS011;2305;50.118;8.952;2023-09-07T09:15:16;3.50;;;3.10;;
4585;SDS011;2305;50.118;8.952;2023-09-07T09:17:45;3.60;;;3.07;;
4585;SDS011;2305;50.118;8.952;2023-09-07T09:20:22;3.87;;;3.50;;
4585;SDS011;2305;50.118;8.952;2023-09-07T09:22:51;7.37;;;3.70;;
4585;SDS011;2305;50.118;8.952;2023-09-07T09:25:20;3.80;;;2.83;;
4585;SDS011;2305;50.118;8.952;2023-09-07T09:27:49;4.93;;;3.10;;
4585;SDS011;2305;50.118;8.952;2023-09-07T09:30:18;6.50;;;3.43;;
4585;SDS011;2305;50.118;8.952;2023-09-07T09:32:46;5.07;;;3.23;;
4585;SDS011;2305;50.118;8.952;2023-09-07T09:35:16;4.37;;;3.17;;
4585;SDS011;2305;50.118;8.952;2023-09-07T09:37:47;3.80;;;3.00;;
4585;SDS011;2305;50.118;8.952;2023-09-07T09:40:16;5.60;;;3.10;;
4585;SDS011;2305;50.118;8.952;2023-09-07T09:42:46;3.87;;;3.20;;
4585;SDS011;2305;50.118;8.952;2023-09-07T09:45:17;5.50;;;3.60;;
4585;SDS011;2305;50.118;8.952;2023-09-07T09:47:54;5.23;;;3.73;;
4585;SDS011;2305;50.118;8.952;2023-09-07T09:50:28;4.00;;;3.60;;
4585;SDS011;2305;50.118;8.952;2023-09-07T09:53:02;4.30;;;3.17;;
4585;SDS011;2305;50.118;8.952;2023-09-07T09:55:35;3.43;;;2.63;;
4585;SDS011;2305;50.118;8.952;2023-09-07T09:58:05;4.40;;;2.73;;
4585;SDS011;2305;50.118;8.952;2023-09-07T10:00:35;4.33;;;3.40;;
4585;SDS011;2305;50.118;8.952;2023-09-07T10:03:05;3.30;;;2.83;;
4585;SDS011;2305;50.118;8.952;2023-09-07T10:05:39;4.50;;;3.27;;
4585;SDS011;2305;50.118;8.952;2023-09-07T10:08:11;4.27;;;3.00;;
4585;SDS011;2305;50.118;8.952;2023-09-07T10:10:41;6.93;;;3.23;;
4585;SDS011;2305;50.118;8.952;2023-09-07T10:13:12;4.33;;;2.97;;
4585;SDS011;2305;50.118;8.952;2023-09-07T10:15:44;5.90;;;2.80;;
4585;SDS011;2305;50.118;8.952;2023-09-07T10:18:12;4.67;;;3.10;;
4585;SDS011;2305;50.118;8.952;2023-09-07T10:20:47;3.97;;;2.83;;
4585;SDS011;2305;50.118;8.952;2023-09-07T10:23:22;3.53;;;2.93;;
4585;SDS011;2305;50.118;8.952;2023-09-07T10:25:52;4.20;;;2.90;;
4585;SDS011;2305;50.118;8.952;2023-09-07T10:28:23;4.27;;;3.13;;
4585;SDS011;2305;50.118;8.952;2023-09-07T10:30:59;7.60;;;3.20;;
4585;SDS011;2305;50.118;8.952;2023-09-07T10:33:31;4.10;;;2.80;;
4585;SDS011;2305;50.118;8.952;2023-09-07T10:36:00;4.57;;;3.27;;
4585;SDS011;2305;50.118;8.952;2023-09-07T10:38:34;4.33;;;3.10;;
4585;SDS011;2305;50.118;8.952;2023-09-07T10:41:05;3.43;;;3.13;;
4585;SDS011;2305;50.118;8.952;2023-09-07T10:43:33;4.00;;;2.80;;
4585;SDS011;2305;50.118;8.952;2023-09-07T10:46:02;5.07;;;3.40;;
4585;SDS011;2305;50.118;8.952;2023-09-07T10:48:30;4.40;;;3.20;;
4585;SDS011;2305;50.118;8.952;2023-09-07T10:50:59;3.20;;;2.83;;
4585;SDS011;2305;50.118;8.952;2023-09-07T10:53:29;4.73;;;3.27;;
4585;SDS011;2305;50.118;8.952;2023-09-07T10:56:05;4.37;;;2.90;;
4585;SDS011;2305;50.118;8.952;2023-09-07T10:58:36;4.20;;;3.20;;
4585;SDS011;2305;50.118;8.952;2023-09-07T11:01:07;3.80;;;2.67;;
4585;SDS011;2305;50.118;8.952;2023-09-07T11:03:36;7.10;;;3.50;;
4585;SDS011;2305;50.118;8.952;2023-09-07T11:06:09;5.00;;;3.30;;
4585;SDS011;2305;50.118;8.952;2023-09-07T11:08:40;3.43;;;2.60;;
4585;SDS011;2305;50.118;8.952;2023-09-07T11:11:10;4.90;;;3.10;;
4585;SDS011;2305;50.118;8.952;2023-09-07T11:13:38;6.83;;;3.07;;
4585;SDS011;2305;50.118;8.952;2023-09-07T11:16:08;4.70;;;2.90;;
4585;SDS011;2305;50.118;8.952;2023-09-07T11:18:38;4.43;;;3.00;;
4585;SDS011;2305;50.118;8.952;2023-09-07T11:21:09;4.63;;;3.00;;
4585;SDS011;2305;50.118;8.952;2023-09-07T11:23:37;3.10;;;2.50;;
4585;SDS011;2305;50.118;8.952;2023-09-07T11:26:07;3.97;;;3.50;;
4585;SDS011;2305;50.118;8.952;2023-09-07T11:28:38;3.83;;;3.30;;
4585;SDS011;2305;50.118;8.952;2023-09-07T11:31:07;6.03;;;3.00;;
4585;SDS011;2305;50.118;8.952;2023-09-07T11:33:41;3.70;;;3.00;;
4585;SDS011;2305;50.118;8.952;2023-09-07T11:36:09;3.00;;;2.60;;
4585;SDS011;2305;50.118;8.952;2023-09-07T11:38:42;4.87;;;3.07;;
4585;SDS011;2305;50.118;8.952;2023-09-07T11:41:13;6.87;;;3.40;;
4585;SDS011;2305;50.118;8.952;2023-09-07T11:43:47;3.77;;;2.73;;
4585;SDS011;2305;50.118;8.952;2023-09-07T11:46:15;3.97;;;3.30;;
4585;SDS011;2305;50.118;8.952;2023-09-07T11:48:46;8.73;;;3.20;;
4585;SDS011;2305;50.118;8.952;2023-09-07T11:51:16;4.30;;;3.10;;
4585;SDS011;2305;50.118;8.952;2023-09-07T11:53:45;3.80;;;3.40;;
4585;SDS011;2305;50.118;8.952;2023-09-07T11:56:15;6.50;;;2.77;;
4585;SDS011;2305;50.118;8.952;2023-09-07T11:58:49;3.97;;;3.30;;
4585;SDS011;2305;50.118;8.952;2023-09-07T12:01:17;5.20;;;3.27;;
4585;SDS011;2305;50.118;8.952;2023-09-07T12:03:48;4.33;;;3.50;;
4585;SDS011;2305;50.118;8.952;2023-09-07T12:06:21;6.03;;;2.93;;
4585;SDS011;2305;50.118;8.952;2023-09-07T12:08:58;4.47;;;3.50;;
4585;SDS011;2305;50.118;8.952;2023-09-07T12:11:29;5.80;;;3.10;;
4585;SDS011;2305;50.118;8.952;2023-09-07T12:14:00;8.60;;;2.90;;
4585;SDS011;2305;50.118;8.952;2023-09-07T12:16:29;3.00;;;2.70;;
4585;SDS011;2305;50.118;8.952;2023-09-07T12:18:58;8.93;;;3.27;;
4585;SDS011;2305;50.118;8.952;2023-09-07T12:21:26;4.03;;;3.40;;
4585;SDS011;2305;50.118;8.952;2023-09-07T12:23:55;7.83;;;3.00;;
4585;SDS011;2305;50.118;8.952;2023-09-07T12:26:25;7.73;;;2.70;;
4585;SDS011;2305;50.118;8.952;2023-09-07T12:28:55;3.00;;;2.60;;
4585;SDS011;2305;50.118;8.952;2023-09-07T12:31:28;4.23;;;2.90;;
4585;SDS011;2305;50.118;8.952;2023-09-07T12:33:58;4.53;;;3.00;;
4585;SDS011;2305;50.118;8.952;2023-09-07T12:36:27;3.20;;;2.83;;
4585;SDS011;2305;50.118;8.952;2023-09-07T12:39:02;4.90;;;3.50;;
4585;SDS011;2305;50.118;8.952;2023-09-07T12:41:32;3.73;;;2.70;;
4585;SDS011;2305;50.118;8.952;2023-09-07T12:44:03;3.87;;;3.03;;
4585;SDS011;2305;50.118;8.952;2023-09-07T12:46:34;8.57;;;3.10;;
4585;SDS011;2305;50.118;8.952;2023-09-07T12:49:03;3.33;;;2.90;;
4585;SDS011;2305;50.118;8.952;2023-09-07T12:51:34;3.40;;;2.80;;
4585;SDS011;2305;50.118;8.952;2023-09-07T12:54:02;4.23;;;2.67;;
4585;SDS011;2305;50.118;8.952;2023-09-07T12:56:31;5.00;;;2.73;;
4585;SDS011;2305;50.118;8.952;2023-09-07T12:59:02;3.70;;;2.77;;
4585;SDS011;2305;50.118;8.952;2023-09-07T13:01:31;5.23;;;3.10;;
4585;SDS011;2305;50.118;8.952;2023-09-07T13:04:03;3.17;;;2.60;;
4585;SDS011;2305;50.118;8.952;2023-09-07T13:06:32;4.53;;;2.93;;
4585;SDS011;2305;50.118;8.952;2023-09-07T13:09:01;3.90;;;3.27;;
4585;SDS011;2305;50.118;8.952;2023-09-07T13:11:32;3.40;;;2.57;;
4585;SDS011;2305;50.118;8.952;2023-09-07T13:14:04;3.83;;;2.80;;
4585;SDS011;2305;50.118;8.952;2023-09-07T13:16:39;4.57;;;3.10;;
4585;SDS011;2305;50.118;8.952;2023-09-07T13:19:08;6.03;;;2.77;;
4585;SDS011;2305;50.118;8.952;2023-09-07T13:21:38;3.90;;;3.10;;
4585;SDS011;2305;50.118;8.952;2023-09-07T13:24:08;4.40;;;3.10;;
4585;SDS011;2305;50.118;8.952;2023-09-07T13:26:36;4.20;;;2.87;;
4585;SDS011;2305;50.118;8.952;2023-09-07T13:29:07;4.60;;;2.60;;
4585;SDS011;2305;50.118;8.952;2023-09-07T13:31:40;3.73;;;3.23;;
4585;SDS011;2305;50.118;8.952;2023-09-07T13:34:13;6.03;;;3.07;;
4585;SDS011;2305;50.118;8.952;2023-09-07T13:36:43;3.27;;;2.90;;
4585;SDS011;2305;50.118;8.952;2023-09-07T13:39:14;5.03;;;2.53;;
4585;SDS011;2305;50.118;8.952;2023-09-07T13:41:43;3.07;;;2.77;;
4585;SDS011;2305;50.118;8.952;2023-09-07T13:44:14;3.97;;;3.10;;
4585;SDS011;2305;50.118;8.952;2023-09-07T13:46:48;4.17;;;2.73;;
4585;SDS011;2305;50.118;8.952;2023-09-07T13:49:22;3.00;;;2.47;;
4585;SDS011;2305;50.118;8.952;2023-09-07T13:51:55;3.10;;;2.63;;
4585;SDS011;2305;50.118;8.952;2023-09-07T13:54:26;5.30;;;2.80;;
4585;SDS011;2305;50.118;8.952;2023-09-07T13:56:56;5.10;;;3.33;;
4585;SDS011;2305;50.118;8.952;2023-09-07T13:59:26;3.20;;;2.90;;
4585;SDS011;2305;50.118;8.952;2023-09-07T14:01:59;3.43;;;2.70;;
4585;SDS011;2305;50.118;8.952;2023-09-07T14:04:29;4.27;;;2.70;;
4585;SDS011;2305;50.118;8.952;2023-09-07T14:06:58;3.53;;;2.70;;
4585;SDS011;2305;50.118;8.952;2023-09-07T14:09:27;3.70;;;2.60;;
4585;SDS011;2305;50.118;8.952;2023-09-07T14:11:56;4.90;;;2.87;;
4585;SDS011;2305;50.118;8.952;2023-09-07T14:14:24;3.27;;;2.50;;
4585;SDS011;2305;50.118;8.952;2023-09-07T14:16:52;5.77;;;2.37;;
4585;SDS011;2305;50.118;8.952;2023-09-07T14:19:23;4.30;;;3.10;;
4585;SDS011;2305;50.118;8.952;2023-09-07T14:21:55;3.60;;;3.00;;
4585;SDS011;2305;50.118;8.952;2023-09-07T14:24:25;6.47;;;2.67;;
4585;SDS011;2305;50.118;8.952;2023-09-07T14:26:54;10.50;;;2.60;;
4585;SDS011;2305;50.118;8.952;2023-09-07T14:29:23;7.03;;;2.70;;
4585;SDS011;2305;50.118;8.952;2023-09-07T14:31:52;3.47;;;2.80;;
4585;SDS011;2305;50.118;8.952;2023-09-07T14:34:21;3.90;;;2.73;;
4585;SDS011;2305;50.118;8.952;2023-09-07T14:36:49;4.20;;;3.33;;
4585;SDS011;2305;50.118;8.952;2023-09-07T14:39:22;4.90;;;2.80;;
4585;SDS011;2305;50.118;8.952;2023-09-07T14:41:51;4.40;;;2.20;;
4585;SDS011;2305;50.118;8.952;2023-09-07T14:44:20;2.83;;;2.43;;
4585;SDS011;2305;50.118;8.952;2023-09-07T14:46:50;4.60;;;2.57;;
4585;SDS011;2305;50.118;8.952;2023-09-07T14:49:19;3.23;;;2.30;;
4585;SDS011;2305;50.118;8.952;2023-09-07T14:51:50;3.07;;;2.70;;
4585;SDS011;2305;50.118;8.952;2023-09-07T14:54:18;3.33;;;2.87;;
4585;SDS011;2305;50.118;8.952;2023-09-07T14:56:49;3.83;;;2.83;;
4585;SDS011;2305;50.118;8.952;2023-09-07T14:59:17;4.50;;;2.40;;
4585;SDS011;2305;50.118;8.952;2023-09-07T15:01:48;4.90;;;2.97;;
4585;SDS011;2305;50.118;8.952;2023-09-07T15:04:29;2.90;;;2.40;;
4585;SDS011;2305;50.118;8.952;2023-09-07T15:06:57;6.20;;;2.60;;
4585;SDS011;2305;50.118;8.952;2023-09-07T15:09:26;7.87;;;3.57;;
4585;SDS011;2305;50.118;8.952;2023-09-07T15:11:58;7.67;;;3.00;;
4585;SDS011;2305;50.118;8.952;2023-09-07T15:14:28;5.53;;;4.10;;
4585;SDS011;2305;50.118;8.952;2023-09-07T15:17:00;4.20;;;2.80;;
4585;SDS011;2305;50.118;8.952;2023-09-07T15:19:28;8.00;;;3.83;;
4585;SDS011;2305;50.118;8.952;2023-09-07T15:22:01;8.07;;;3.40;;
4585;SDS011;2305;50.118;8.952;2023-09-07T15:24:30;3.17;;;2.73;;
4585;SDS011;2305;50.118;8.952;2023-09-07T15:27:08;2.90;;;2.40;;
4585;SDS011;2305;50.118;8.952;2023-09-07T15:29:39;4.73;;;3.33;;
4585;SDS011;2305;50.118;8.952;2023-09-07T15:32:08;4.73;;;3.00;;
4585;SDS011;2305;50.118;8.952;2023-09-07T15:34:39;16.80;;;2.60;;
4585;SDS011;2305;50.118;8.952;2023-09-07T15:37:10;4.80;;;2.63;;